createdAt,value
2022-08-24T00:00:10.253Z,89.80
2022-08-24T00:02:37.029Z,89.90
2022-08-24T00:05:04.690Z,89.80
2022-08-24T00:07:31.616Z,90.20
2022-08-24T00:09:58.437Z,90.30
2022-08-24T00:12:25.710Z,90.60
2022-08-24T00:14:53.376Z,90.70
2022-08-24T00:17:20.481Z,90.80
2022-08-24T00:19:47.400Z,90.90
2022-08-24T00:22:14.074Z,91.20
2022-08-24T00:24:40.748Z,91.20
2022-08-24T00:27:08.482Z,91.30
2022-08-24T00:29:35.359Z,91.30
2022-08-24T00:32:02.121Z,91.50
2022-08-24T00:34:30.242Z,91.70
2022-08-24T00:36:56.930Z,91.80
2022-08-24T00:39:23.904Z,91.90
2022-08-24T00:41:51.602Z,92.00
2022-08-24T00:44:20.778Z,92.20
2022-08-24T00:47:01.745Z,92.30
2022-08-24T00:49:37.386Z,92.50
2022-08-24T00:52:14.482Z,92.70
2022-08-24T00:54:55.141Z,92.80
2022-08-24T00:57:27.521Z,92.90
2022-08-24T00:59:58.688Z,93.00
2022-08-24T01:02:29.470Z,93.20
2022-08-24T01:04:59.721Z,93.50
2022-08-24T01:07:29.186Z,93.20
2022-08-24T01:10:00.170Z,93.40
2022-08-24T01:12:29.326Z,93.40
2022-08-24T01:14:57.917Z,93.60
2022-08-24T01:17:44.162Z,93.70
2022-08-24T01:20:11.800Z,94.00
2022-08-24T01:22:53.989Z,94.20
2022-08-24T01:25:22.798Z,94.20
2022-08-24T01:27:51.894Z,94.40
2022-08-24T01:30:20.605Z,94.60
2022-08-24T01:32:55.546Z,94.80
2022-08-24T01:35:22.593Z,94.80
2022-08-24T01:37:49.850Z,94.90
2022-08-24T01:40:18.423Z,95.10
2022-08-24T01:42:50.511Z,95.20
2022-08-24T01:45:18.344Z,95.30
2022-08-24T01:47:45.436Z,95.40
2022-08-24T01:50:12.698Z,95.60
2022-08-24T01:53:04.007Z,95.60
2022-08-24T01:55:29.382Z,95.70
2022-08-24T01:57:56.209Z,96.00
2022-08-24T02:00:22.987Z,95.90
2022-08-24T02:02:49.787Z,95.80
2022-08-24T02:05:17.152Z,95.70
2022-08-24T02:07:44.145Z,95.50
2022-08-24T02:10:14.724Z,95.40
2022-08-24T02:12:43.580Z,95.50
2022-08-24T02:15:11.400Z,95.40
2022-08-24T02:17:38.847Z,95.50
2022-08-24T02:20:07.055Z,95.70
2022-08-24T02:22:33.744Z,95.80
2022-08-24T02:25:00.409Z,95.90
2022-08-24T02:27:27.033Z,96.00
2022-08-24T02:29:53.658Z,96.20
2022-08-24T02:32:20.462Z,96.30
2022-08-24T02:34:47.094Z,96.30
2022-08-24T02:37:14.530Z,96.40
2022-08-24T02:39:41.339Z,96.50
2022-08-24T02:42:08.016Z,96.60
2022-08-24T02:44:35.018Z,96.60
2022-08-24T02:47:01.663Z,96.70
2022-08-24T02:49:28.435Z,96.70
2022-08-24T02:51:55.550Z,96.90
2022-08-24T02:54:22.482Z,96.80
2022-08-24T02:56:49.362Z,96.90
2022-08-24T02:59:16.975Z,97.00
2022-08-24T03:01:44.951Z,97.20
2022-08-24T03:04:12.023Z,97.20
2022-08-24T03:06:39.021Z,97.40
2022-08-24T03:09:06.062Z,97.50
2022-08-24T03:11:32.770Z,97.70
2022-08-24T03:13:59.698Z,97.90
2022-08-24T03:16:28.061Z,98.20
2022-08-24T03:18:54.999Z,98.30
2022-08-24T03:21:21.898Z,98.50
2022-08-24T03:23:48.550Z,98.70
2022-08-24T03:26:15.499Z,99.10
2022-08-24T03:28:44.641Z,99.30
2022-08-24T03:31:12.336Z,99.40
2022-08-24T03:33:38.981Z,99.70
2022-08-24T03:36:06.137Z,99.90
2022-08-24T03:38:32.806Z,99.90
2022-08-24T03:40:59.827Z,99.90
2022-08-24T03:43:44.950Z,99.90
2022-08-24T03:46:12.366Z,99.90
2022-08-24T03:48:40.544Z,99.90
2022-08-24T03:51:10.645Z,99.90
2022-08-24T03:53:37.626Z,99.90
2022-08-24T03:56:10.681Z,99.90
2022-08-24T03:58:39.337Z,99.90
2022-08-24T04:01:06.298Z,99.90
2022-08-24T04:03:44.291Z,99.90
2022-08-24T04:06:12.338Z,99.90
2022-08-24T04:08:40.669Z,99.90
2022-08-24T04:11:18.059Z,99.90
2022-08-24T04:13:46.593Z,99.90
2022-08-24T04:16:19.049Z,99.90
2022-08-24T04:18:45.850Z,99.90
2022-08-24T04:21:23.303Z,99.90
2022-08-24T04:23:50.398Z,99.90
2022-08-24T04:26:36.426Z,99.90
2022-08-24T04:29:08.209Z,99.90
2022-08-24T04:31:36.913Z,99.90
2022-08-24T04:34:04.200Z,99.90
2022-08-24T04:36:32.402Z,99.90
2022-08-24T04:39:00.816Z,99.90
2022-08-24T04:41:31.259Z,99.90
2022-08-24T04:43:59.314Z,99.90
2022-08-24T04:46:27.088Z,99.90
2022-08-24T04:48:54.212Z,99.90
2022-08-24T04:51:21.331Z,99.90
2022-08-24T04:53:50.427Z,99.90
2022-08-24T04:56:23.790Z,99.90
2022-08-24T04:58:52.244Z,99.90
2022-08-24T05:01:22.344Z,99.90
2022-08-24T05:03:50.592Z,99.90
2022-08-24T05:06:19.142Z,99.90
2022-08-24T05:08:47.292Z,99.90
2022-08-24T05:11:15.037Z,99.90
2022-08-24T05:13:41.739Z,99.90
2022-08-24T05:16:11.964Z,99.90
2022-08-24T05:18:40.713Z,99.90
2022-08-24T05:21:09.648Z,99.90
2022-08-24T05:23:37.920Z,99.90
2022-08-24T05:26:06.839Z,99.90
2022-08-24T05:28:35.421Z,99.90
2022-08-24T05:31:14.747Z,99.90
2022-08-24T05:33:42.040Z,99.90
2022-08-24T05:36:23.302Z,99.90
2022-08-24T05:38:52.767Z,99.90
2022-08-24T05:41:20.117Z,99.90
2022-08-24T05:43:47.290Z,99.90
2022-08-24T05:46:14.746Z,99.90
2022-08-24T05:48:41.803Z,99.90
2022-08-24T05:51:10.106Z,99.90
2022-08-24T05:53:38.178Z,99.90
2022-08-24T05:56:13.494Z,99.90
2022-08-24T05:58:41.101Z,99.90
2022-08-24T06:01:10.637Z,99.90
2022-08-24T06:03:38.621Z,99.90
2022-08-24T06:06:08.493Z,99.90
2022-08-24T06:08:41.075Z,99.90
2022-08-24T06:11:08.885Z,99.90
2022-08-24T06:13:36.573Z,99.90
2022-08-24T06:16:21.232Z,99.90
2022-08-24T06:18:49.631Z,99.90
2022-08-24T06:21:20.900Z,99.90
2022-08-24T06:23:48.498Z,99.90
2022-08-24T06:26:34.344Z,99.90
2022-08-24T06:29:02.307Z,99.90
2022-08-24T06:31:29.153Z,99.90
2022-08-24T06:34:06.053Z,99.90
2022-08-24T06:36:32.694Z,99.90
2022-08-24T06:38:59.992Z,99.90
2022-08-24T06:41:27.925Z,99.90
2022-08-24T06:43:54.581Z,99.90
2022-08-24T06:46:24.979Z,99.90
2022-08-24T06:48:54.052Z,99.90
2022-08-24T06:51:25.254Z,99.90
2022-08-24T06:53:53.697Z,99.90
2022-08-24T06:56:20.963Z,99.90
2022-08-24T06:58:48.014Z,99.90
2022-08-24T07:01:18.126Z,99.90
2022-08-24T07:03:45.705Z,99.90
2022-08-24T07:06:14.234Z,99.90
2022-08-24T07:08:43.056Z,99.90
2022-08-24T07:11:11.425Z,99.90
2022-08-24T07:13:38.683Z,99.90
2022-08-24T07:16:05.691Z,99.90
2022-08-24T07:18:32.940Z,99.90
2022-08-24T07:21:02.419Z,99.90
2022-08-24T07:23:42.369Z,99.90
2022-08-24T07:26:21.294Z,99.90
2022-08-24T07:29:05.055Z,99.90
2022-08-24T07:31:35.503Z,99.90
2022-08-24T07:34:03.574Z,99.90
2022-08-24T07:36:30.414Z,99.90
2022-08-24T07:38:57.269Z,99.90
2022-08-24T07:44:14.715Z,99.90
2022-08-24T07:46:42.137Z,99.90
2022-08-24T07:49:19.275Z,99.80
2022-08-24T07:51:54.923Z,99.90
2022-08-24T07:54:21.803Z,99.40
2022-08-24T07:56:50.091Z,99.40
2022-08-24T07:59:17.720Z,98.80
2022-08-24T08:01:44.847Z,98.80
2022-08-24T08:04:11.888Z,98.50
2022-08-24T08:06:38.627Z,98.60
2022-08-24T08:09:06.277Z,98.30
2022-08-24T08:11:33.537Z,98.10
2022-08-24T08:14:00.221Z,98.00
2022-08-24T08:16:27.445Z,97.60
2022-08-24T08:19:09.268Z,97.50
2022-08-24T08:22:09.626Z,97.40
2022-08-24T08:24:39.655Z,97.20
2022-08-24T08:27:06.932Z,96.90
2022-08-24T08:29:34.434Z,97.30
2022-08-24T08:32:01.128Z,96.80
2022-08-24T08:34:28.822Z,96.50
2022-08-24T08:36:55.555Z,96.80
2022-08-24T08:39:22.728Z,96.30
2022-08-24T08:41:49.293Z,96.30
2022-08-24T08:44:44.229Z,96.10
2022-08-24T08:47:27.693Z,96.10
2022-08-24T08:50:06.985Z,95.80
2022-08-24T08:52:52.421Z,95.50
2022-08-24T08:55:39.718Z,95.30
2022-08-24T08:58:28.107Z,95.30
2022-08-24T09:01:01.544Z,95.30
2022-08-24T09:03:43.457Z,95.10
2022-08-24T09:06:16.292Z,94.60
2022-08-24T09:08:52.133Z,94.90
2022-08-24T09:11:18.978Z,94.70
2022-08-24T09:14:18.833Z,94.30
2022-08-24T09:17:12.989Z,94.40
2022-08-24T09:20:02.434Z,94.00
2022-08-24T09:22:29.689Z,93.70
2022-08-24T09:25:07.926Z,93.10
2022-08-24T09:27:37.353Z,93.10
2022-08-24T09:30:24.487Z,93.00
2022-08-24T09:33:14.560Z,92.80
2022-08-24T09:36:07.959Z,93.00
2022-08-24T09:38:43.126Z,92.50
2022-08-24T09:41:34.154Z,92.70
2022-08-24T09:44:29.538Z,92.00
2022-08-24T09:47:05.192Z,91.80
2022-08-24T09:49:59.169Z,91.80
2022-08-24T09:52:46.996Z,91.50
2022-08-24T09:55:16.723Z,90.90
2022-08-24T09:58:03.575Z,90.90
2022-08-24T10:00:39.582Z,90.50
2022-08-24T10:03:33.964Z,90.50
2022-08-24T10:06:16.250Z,90.40
2022-08-24T10:09:14.413Z,90.70
2022-08-24T10:11:57.852Z,89.70
2022-08-24T10:14:41.077Z,87.70
2022-08-24T10:17:33.117Z,88.40
2022-08-24T10:20:26.070Z,89.40
2022-08-24T10:23:01.634Z,89.10
2022-08-24T10:25:54.434Z,87.70
2022-08-24T10:28:58.136Z,87.60
2022-08-24T10:31:40.388Z,87.10
2022-08-24T10:34:40.272Z,87.70
2022-08-24T10:37:18.818Z,87.80
2022-08-24T10:40:09.400Z,86.30
2022-08-24T10:43:19.871Z,86.10
2022-08-24T10:46:22.620Z,84.90
2022-08-24T10:49:27.337Z,84.20
2022-08-24T10:52:09.050Z,85.00
2022-08-24T10:54:37.053Z,82.50
2022-08-24T10:57:15.101Z,82.90
2022-08-24T11:00:02.784Z,82.60
2022-08-24T11:02:39.854Z,82.20
2022-08-24T11:05:10.598Z,82.10
2022-08-24T11:07:38.241Z,81.90
2022-08-24T11:10:08.804Z,81.00
2022-08-24T11:12:42.494Z,81.10
2022-08-24T11:15:18.249Z,80.60
2022-08-24T11:18:04.964Z,80.40
2022-08-24T11:20:41.201Z,79.90
2022-08-24T11:23:34.537Z,79.40
2022-08-24T11:26:20.847Z,77.70
2022-08-24T11:28:53.459Z,78.50
2022-08-24T11:31:33.816Z,78.00
2022-08-24T11:34:04.087Z,78.80
2022-08-24T11:36:34.695Z,76.70
2022-08-24T11:39:21.923Z,76.00
2022-08-24T11:42:14.433Z,75.70
2022-08-24T11:44:49.826Z,74.90
2022-08-24T11:47:45.785Z,74.50
2022-08-24T11:50:18.381Z,74.10
2022-08-24T11:53:24.540Z,73.30
2022-08-24T11:56:00.677Z,72.60
2022-08-24T11:58:49.186Z,72.60
2022-08-24T12:01:42.889Z,72.30
2022-08-24T12:04:14.618Z,71.60
2022-08-24T12:06:59.836Z,70.40
2022-08-24T12:09:36.069Z,69.30
2022-08-24T12:12:27.464Z,67.90
2022-08-24T12:15:05.733Z,67.80
2022-08-24T12:17:32.862Z,68.80
2022-08-24T12:20:05.247Z,69.10
2022-08-24T12:22:32.588Z,67.00
2022-08-24T12:25:24.353Z,67.00
2022-08-24T12:27:53.946Z,65.30
2022-08-24T12:30:20.748Z,64.20
2022-08-24T12:32:50.148Z,65.40
2022-08-24T12:35:22.709Z,63.70
2022-08-24T12:38:00.241Z,62.10
2022-08-24T12:40:36.586Z,61.10
2022-08-24T12:43:18.797Z,60.60
2022-08-24T12:45:46.075Z,60.60
2022-08-24T12:48:15.547Z,62.70
2022-08-24T12:51:18.998Z,61.90
2022-08-24T12:54:19.046Z,59.80
2022-08-24T12:57:02.557Z,60.40
2022-08-24T13:00:11.073Z,59.70
2022-08-24T13:02:48.438Z,59.20
2022-08-24T13:05:19.170Z,59.50
2022-08-24T13:07:49.802Z,60.30
2022-08-24T13:10:38.541Z,58.70
2022-08-24T13:13:05.172Z,59.40
2022-08-24T13:15:31.769Z,59.20
2022-08-24T13:18:03.251Z,57.10
2022-08-24T13:20:50.213Z,57.50
2022-08-24T13:23:23.039Z,57.70
2022-08-24T13:26:13.998Z,57.50
2022-08-24T13:28:54.503Z,58.00
2022-08-24T13:31:33.455Z,56.50
2022-08-24T13:34:24.858Z,55.40
2022-08-24T13:37:15.816Z,56.30
2022-08-24T13:39:58.654Z,56.90
2022-08-24T13:42:41.326Z,55.50
2022-08-24T13:45:23.090Z,56.50
2022-08-24T13:48:08.300Z,56.40
2022-08-24T13:50:37.937Z,56.50
2022-08-24T13:53:35.040Z,56.50
2022-08-24T13:56:33.198Z,56.00
2022-08-24T13:59:33.765Z,55.80
2022-08-24T14:02:42.301Z,55.50
2022-08-24T14:05:57.561Z,55.50
2022-08-24T14:08:30.008Z,55.30
2022-08-24T14:11:14.840Z,55.00
2022-08-24T14:13:57.170Z,54.70
2022-08-24T14:16:57.715Z,55.80
2022-08-24T14:19:50.937Z,55.10
2022-08-24T14:22:39.837Z,55.10
2022-08-24T14:25:22.645Z,55.00
2022-08-24T14:28:11.286Z,54.00
2022-08-24T14:30:43.397Z,55.20
2022-08-24T14:33:14.984Z,54.40
2022-08-24T14:35:56.699Z,54.70
2022-08-24T14:38:38.036Z,54.90
2022-08-24T14:41:22.364Z,54.10
2022-08-24T14:43:48.983Z,54.30
2022-08-24T14:46:33.809Z,54.80
2022-08-24T14:49:58.372Z,54.20
2022-08-24T14:53:02.776Z,54.30
2022-08-24T14:56:01.581Z,53.20
2022-08-24T14:58:31.327Z,52.80
2022-08-24T15:01:08.353Z,53.10
2022-08-24T15:04:12.486Z,53.70
2022-08-24T15:06:51.099Z,52.40
2022-08-24T15:09:28.041Z,49.40
2022-08-24T15:12:03.242Z,47.50
2022-08-24T15:14:33.807Z,46.50
2022-08-24T15:17:11.714Z,46.60
2022-08-24T15:20:15.313Z,49.80
2022-08-24T15:22:57.961Z,51.60
2022-08-24T15:25:41.733Z,52.90
2022-08-24T15:28:24.701Z,53.60
2022-08-24T15:31:01.590Z,54.30
2022-08-24T15:33:30.361Z,54.80
2022-08-24T15:36:10.434Z,55.50
2022-08-24T15:38:39.674Z,56.50
2022-08-24T15:41:19.105Z,55.70
2022-08-24T15:43:50.790Z,55.40
2022-08-24T15:46:23.108Z,56.20
2022-08-24T15:48:50.964Z,56.20
2022-08-24T15:51:43.127Z,55.60
2022-08-24T15:54:31.318Z,55.80
2022-08-24T15:57:04.688Z,56.00
2022-08-24T15:59:46.718Z,56.20
2022-08-24T16:02:25.990Z,56.00
2022-08-24T16:05:18.812Z,56.10
2022-08-24T16:08:03.866Z,56.00
2022-08-24T16:10:42.570Z,56.20
2022-08-24T16:13:19.218Z,56.00
2022-08-24T16:16:11.708Z,56.20
2022-08-24T16:18:51.146Z,56.30
2022-08-24T16:21:34.132Z,55.40
2022-08-24T16:24:07.315Z,55.20
2022-08-24T16:26:53.906Z,55.30
2022-08-24T16:29:39.048Z,55.00
2022-08-24T16:32:21.545Z,54.40
2022-08-24T16:35:08.459Z,54.70
2022-08-24T16:37:36.112Z,50.40
2022-08-24T16:40:03.914Z,48.50
2022-08-24T16:42:31.293Z,46.00
2022-08-24T16:44:58.873Z,44.60
2022-08-24T16:47:27.355Z,43.80
2022-08-24T16:49:54.486Z,43.20
2022-08-24T16:52:21.965Z,43.20
2022-08-24T16:54:49.045Z,44.00
2022-08-24T16:57:19.705Z,43.00
2022-08-24T16:59:48.229Z,43.10
2022-08-24T17:02:16.713Z,42.90
2022-08-24T17:04:43.730Z,42.70
2022-08-24T17:07:14.054Z,43.10
2022-08-24T17:09:43.848Z,43.00
2022-08-24T17:12:10.829Z,42.80
2022-08-24T17:14:39.431Z,42.70
2022-08-24T17:17:07.750Z,42.70
2022-08-24T17:19:35.564Z,42.90
2022-08-24T17:22:02.419Z,43.00
2022-08-24T17:24:29.410Z,43.30
2022-08-24T17:26:56.598Z,43.80
2022-08-24T17:29:24.734Z,44.20
2022-08-24T17:31:52.204Z,44.80
2022-08-24T17:34:21.199Z,47.80
2022-08-24T17:36:54.351Z,49.30
2022-08-24T17:39:23.993Z,50.90
2022-08-24T17:41:52.340Z,51.50
2022-08-24T17:44:25.013Z,52.30
2022-08-24T17:46:54.786Z,51.70
2022-08-24T17:49:21.995Z,51.50
2022-08-24T17:51:49.669Z,51.20
2022-08-24T17:54:17.303Z,51.10
2022-08-24T17:56:46.484Z,52.00
2022-08-24T17:59:23.334Z,53.60
2022-08-24T18:01:52.264Z,54.00
2022-08-24T18:04:20.805Z,55.00
2022-08-24T18:06:49.498Z,55.60
2022-08-24T18:09:54.940Z,56.10
2022-08-24T18:12:24.603Z,56.90
2022-08-24T18:14:52.302Z,57.30
2022-08-24T18:17:23.672Z,58.00
2022-08-24T18:19:52.886Z,58.60
2022-08-24T18:22:20.025Z,58.40
2022-08-24T18:24:46.773Z,58.80
2022-08-24T18:27:19.146Z,59.00
2022-08-24T18:29:47.430Z,59.20
2022-08-24T18:32:22.171Z,59.30
2022-08-24T18:34:49.130Z,61.50
2022-08-24T18:37:15.906Z,61.40
2022-08-24T18:39:42.726Z,61.90
2022-08-24T18:42:12.644Z,62.20
2022-08-24T18:44:40.010Z,63.60
2022-08-24T18:47:08.110Z,64.10
2022-08-24T18:49:35.610Z,63.40
2022-08-24T18:52:03.639Z,64.10
2022-08-24T18:54:38.089Z,63.90
2022-08-24T18:57:07.247Z,63.80
2022-08-24T18:59:35.383Z,64.10
2022-08-24T19:02:33.136Z,63.80
2022-08-24T19:05:06.470Z,64.20
2022-08-24T19:07:36.083Z,64.80
2022-08-24T19:10:04.950Z,64.60
2022-08-24T19:12:42.449Z,65.40
2022-08-24T19:15:35.852Z,65.10
2022-08-24T19:18:02.670Z,65.30
2022-08-24T19:20:30.759Z,65.30
2022-08-24T19:23:04.954Z,66.00
2022-08-24T19:25:32.623Z,65.80
2022-08-24T19:27:59.546Z,65.70
2022-08-24T19:30:28.146Z,65.90
2022-08-24T19:32:59.268Z,66.40
2022-08-24T19:35:26.283Z,66.00
2022-08-24T19:37:52.957Z,66.20
2022-08-24T19:40:22.690Z,66.50
2022-08-24T19:42:53.444Z,67.00
2022-08-24T19:45:43.612Z,67.00
2022-08-24T19:48:11.517Z,67.30
2022-08-24T19:50:38.691Z,67.70
2022-08-24T19:53:06.570Z,67.80
2022-08-24T19:55:33.497Z,67.90
2022-08-24T19:58:06.240Z,68.30
2022-08-24T20:00:42.058Z,69.20
2022-08-24T20:03:15.072Z,68.80
2022-08-24T20:05:41.860Z,69.10
2022-08-24T20:08:08.814Z,69.60
2022-08-24T20:10:35.620Z,70.10
2022-08-24T20:13:02.427Z,70.00
2022-08-24T20:15:29.284Z,70.40
2022-08-24T20:17:57.891Z,71.10
2022-08-24T20:20:26.230Z,71.10
2022-08-24T20:22:53.154Z,71.70
2022-08-24T20:25:20.490Z,72.10
2022-08-24T20:27:48.206Z,73.40
2022-08-24T20:30:16.395Z,73.30
2022-08-24T20:32:43.500Z,73.70
2022-08-24T20:35:10.381Z,73.90
2022-08-24T20:37:39.541Z,74.20
2022-08-24T20:40:07.384Z,74.60
2022-08-24T20:42:34.149Z,74.60
2022-08-24T20:45:01.004Z,74.80
2022-08-24T20:47:27.908Z,75.20
2022-08-24T20:49:55.212Z,75.20
2022-08-24T20:52:22.293Z,75.60
2022-08-24T20:54:49.643Z,75.90
2022-08-24T20:57:19.336Z,76.10
2022-08-24T20:59:47.274Z,76.10
2022-08-24T21:02:14.133Z,76.50
2022-08-24T21:04:40.770Z,76.80
2022-08-24T21:07:11.228Z,76.90
2022-08-24T21:09:38.375Z,77.40
2022-08-24T21:12:05.407Z,77.60
2022-08-24T21:14:32.022Z,77.90
2022-08-24T21:16:59.193Z,78.10
2022-08-24T21:19:25.897Z,78.60
2022-08-24T21:21:52.606Z,78.70
2022-08-24T21:24:19.250Z,78.80
2022-08-24T21:26:46.188Z,79.40
2022-08-24T21:29:13.209Z,79.80
2022-08-24T21:31:39.905Z,80.00
2022-08-24T21:34:26.618Z,80.40
2022-08-24T21:36:54.650Z,80.50
2022-08-24T21:39:21.666Z,81.20
2022-08-24T21:41:48.353Z,81.60
2022-08-24T21:44:14.996Z,81.60
2022-08-24T21:46:41.815Z,81.80
2022-08-24T21:49:12.027Z,82.20
2022-08-24T21:51:39.454Z,83.00
2022-08-24T21:54:06.134Z,82.70
2022-08-24T21:56:34.270Z,83.00
2022-08-24T21:59:01.002Z,83.40
2022-08-24T22:01:28.670Z,83.70
2022-08-24T22:03:55.899Z,84.60
2022-08-24T22:06:22.792Z,85.70
2022-08-24T22:08:49.915Z,86.10
2022-08-24T22:11:19.655Z,86.70
2022-08-24T22:13:47.115Z,87.60
2022-08-24T22:16:14.168Z,88.50
2022-08-24T22:18:41.079Z,88.90
2022-08-24T22:21:13.599Z,89.90
2022-08-24T22:23:40.904Z,89.70
2022-08-24T22:26:08.530Z,90.40
2022-08-24T22:28:38.491Z,90.70
2022-08-24T22:31:23.136Z,91.00
2022-08-24T22:33:50.006Z,91.40
2022-08-24T22:36:17.829Z,91.30
2022-08-24T22:38:44.551Z,91.50
2022-08-24T22:41:11.681Z,92.00
2022-08-24T22:43:57.150Z,92.10
2022-08-24T22:46:25.879Z,92.10
2022-08-24T22:48:53.138Z,92.90
2022-08-24T22:51:19.997Z,93.20
2022-08-24T22:53:46.727Z,93.00
2022-08-24T22:56:19.390Z,93.30
2022-08-24T22:58:46.408Z,93.60
2022-08-24T23:01:36.630Z,94.00
2022-08-24T23:04:12.181Z,94.20
2022-08-24T23:06:39.190Z,94.70
2022-08-24T23:09:07.454Z,94.70
2022-08-24T23:11:34.890Z,95.00
2022-08-24T23:14:03.045Z,95.60
2022-08-24T23:16:32.334Z,95.90
2022-08-24T23:19:17.570Z,96.20
2022-08-24T23:21:44.603Z,96.30
2022-08-24T23:24:12.379Z,96.50
2022-08-24T23:26:40.831Z,96.90
2022-08-24T23:29:09.961Z,97.30
2022-08-24T23:31:36.972Z,97.40
2022-08-24T23:34:04.865Z,97.80
2022-08-24T23:36:31.556Z,97.70
2022-08-24T23:39:00.106Z,98.30
2022-08-24T23:41:30.068Z,98.70
2022-08-24T23:43:59.355Z,98.80
2022-08-24T23:46:26.781Z,99.00
2022-08-24T23:48:55.623Z,99.00
2022-08-24T23:51:23.657Z,99.20
2022-08-24T23:53:51.416Z,98.90
2022-08-24T23:56:30.796Z,99.20
2022-08-24T23:59:11.503Z,99.60
